Time;durP1;ratioP1;P1;durP2;ratioP2;P2;SDS_P1;SDS_P2;PMS_P1;PMS_P2;Temp;Humidity;BMP_temperature;BMP_pressure;BME280_temperature;BME280_humidity;BME280_pressure;Samples;Min_cycle;Max_cycle;Signal;HPM_P1;HPM_P2
2023/06/18 00:00:39;;;;;;;12.97;7.60;;;21.30;99.90;;;;;;7281820;19;22038;-81
2023/06/18 00:03:06;;;;;;;13.97;7.93;;;21.30;99.90;;;;;;7280810;19;20591;-81
2023/06/18 00:05:32;;;;;;;12.13;7.93;;;21.40;99.90;;;;;;7281718;19;20199;-81
2023/06/18 00:07:58;;;;;;;12.80;7.70;;;21.30;99.90;;;;;;7281288;19;20197;-80
2023/06/18 00:10:24;;;;;;;12.70;8.23;;;21.30;99.90;;;;;;7282667;19;20644;-81
2023/06/18 00:12:49;;;;;;;13.67;8.07;;;21.30;99.90;;;;;;7303847;19;20182;-78
2023/06/18 00:15:15;;;;;;;12.20;8.07;;;21.40;99.90;;;;;;7282248;19;20240;-79
2023/06/18 00:17:41;;;;;;;12.57;8.30;;;21.30;99.90;;;;;;7281999;19;20185;-79
2023/06/18 00:20:07;;;;;;;11.20;7.80;;;21.30;99.90;;;;;;7282476;19;20655;-79
2023/06/18 00:22:37;;;;;;;12.23;7.70;;;21.30;99.90;;;;;;7282661;19;20252;-79
2023/06/18 00:25:05;;;;;;;12.33;7.87;;;21.30;99.90;;;;;;7281612;19;20279;-79
2023/06/18 00:27:31;;;;;;;13.63;7.90;;;21.20;99.90;;;;;;7280565;19;20196;-79
2023/06/18 00:29:57;;;;;;;12.97;8.13;;;21.20;99.90;;;;;;7281031;19;20185;-79
2023/06/18 00:32:23;;;;;;;14.03;7.33;;;21.10;99.90;;;;;;7281744;19;20676;-79
2023/06/18 00:34:53;;;;;;;10.83;7.63;;;21.00;99.90;;;;;;7307759;19;20205;-79
2023/06/18 00:37:20;;;;;;;10.77;7.60;;;21.00;99.90;;;;;;7284592;19;20193;-79
2023/06/18 00:39:46;;;;;;;13.73;7.60;;;21.00;99.90;;;;;;7280822;19;20211;-79
2023/06/18 00:42:13;;;;;;;12.97;7.90;;;21.00;99.90;;;;;;7279492;19;20254;-79
2023/06/18 00:44:41;;;;;;;13.00;7.43;;;21.00;99.90;;;;;;7278919;19;20181;-79
2023/06/18 00:47:12;;;;;;;11.40;7.73;;;21.00;99.90;;;;;;7284083;19;20193;-79
2023/06/18 00:49:41;;;;;;;11.53;7.37;;;20.90;99.90;;;;;;7287280;19;20189;-79
2023/06/18 00:52:12;;;;;;;14.53;8.10;;;21.00;99.90;;;;;;7288798;19;20192;-80
2023/06/18 00:54:40;;;;;;;11.83;7.47;;;20.80;99.90;;;;;;7288693;19;20192;-79
2023/06/18 00:57:09;;;;;;;16.47;8.07;;;20.80;99.90;;;;;;7288038;19;20181;-79
2023/06/18 00:59:37;;;;;;;12.53;7.90;;;20.80;99.90;;;;;;7287308;19;20207;-79
2023/06/18 01:02:03;;;;;;;14.13;8.07;;;20.80;99.90;;;;;;7287453;19;20213;-79
2023/06/18 01:04:35;;;;;;;13.40;8.10;;;20.70;99.90;;;;;;7288721;19;20193;-79
2023/06/18 01:07:02;;;;;;;11.60;7.63;;;20.70;99.90;;;;;;7288190;19;20204;-79
2023/06/18 01:09:30;;;;;;;10.80;8.10;;;20.80;99.90;;;;;;7287381;19;20200;-79
2023/06/18 01:11:57;;;;;;;12.93;7.80;;;20.70;99.90;;;;;;7288179;19;20195;-79
2023/06/18 01:14:25;;;;;;;16.23;8.37;;;20.70;99.90;;;;;;7285844;19;20192;-79
2023/06/18 01:17:03;;;;;;;11.43;7.43;;;20.70;99.90;;;;;;7296032;19;20189;-79
2023/06/18 01:19:49;;;;;;;12.87;8.00;;;20.60;99.90;;;;;;7288763;19;20215;-79
2023/06/18 01:22:24;;;;;;;11.93;7.67;;;20.60;99.90;;;;;;7288872;19;20193;-79
2023/06/18 01:24:54;;;;;;;12.60;8.33;;;20.60;99.90;;;;;;7277991;19;20188;-79
2023/06/18 01:27:21;;;;;;;13.97;8.13;;;20.70;99.90;;;;;;7308849;19;20196;-79
2023/06/18 01:29:55;;;;;;;11.90;7.63;;;20.80;99.90;;;;;;7286713;19;20189;-79
2023/06/18 01:32:23;;;;;;;11.27;7.53;;;20.80;99.90;;;;;;7285191;19;20643;-79
2023/06/18 01:34:53;;;;;;;12.17;7.70;;;20.80;99.90;;;;;;7309655;19;20686;-79
2023/06/18 01:37:43;;;;;;;12.23;7.87;;;20.90;99.90;;;;;;7286574;19;20197;-79
2023/06/18 01:40:20;;;;;;;11.97;7.63;;;20.90;99.90;;;;;;7183825;19;2006465;-80
2023/06/18 01:43:14;;;;;;;15.50;7.43;;;20.90;99.90;;;;;;7287631;19;20667;-79
2023/06/18 01:45:46;;;;;;;10.70;7.20;;;20.90;99.90;;;;;;7184511;19;2006252;-79
2023/06/18 01:48:13;;;;;;;12.67;7.63;;;20.70;99.90;;;;;;7285324;19;20213;-80
2023/06/18 01:50:45;;;;;;;12.10;7.20;;;20.80;99.90;;;;;;7287843;19;20281;-80
2023/06/18 01:53:16;;;;;;;10.30;7.20;;;20.80;99.90;;;;;;7285010;19;20218;-79
2023/06/18 01:55:44;;;;;;;13.23;8.00;;;20.80;99.90;;;;;;7284967;19;20203;-79
2023/06/18 01:58:13;;;;;;;10.37;6.87;;;20.80;99.90;;;;;;7284809;19;25645;-79
2023/06/18 02:00:40;;;;;;;12.77;7.70;;;20.80;99.90;;;;;;7284250;19;20200;-79
2023/06/18 02:03:06;;;;;;;12.67;7.70;;;20.80;99.90;;;;;;7285873;19;20201;-80
2023/06/18 02:05:33;;;;;;;11.73;7.00;;;20.80;99.90;;;;;;7286979;19;20189;-79
2023/06/18 02:07:59;;;;;;;13.50;7.30;;;20.70;99.90;;;;;;7285977;19;20188;-79
2023/06/18 02:10:25;;;;;;;11.23;6.87;;;20.70;99.90;;;;;;7285216;19;20280;-79
2023/06/18 02:12:51;;;;;;;11.17;7.20;;;20.70;99.90;;;;;;7302062;19;20260;-79
2023/06/18 02:15:17;;;;;;;12.57;7.37;;;20.70;99.90;;;;;;7298592;19;20185;-79
2023/06/18 02:17:44;;;;;;;11.77;7.57;;;20.70;99.90;;;;;;7285875;19;20208;-79
2023/06/18 02:20:10;;;;;;;13.23;7.10;;;20.70;99.90;;;;;;7285908;19;20181;-79
2023/06/18 02:22:37;;;;;;;11.43;6.37;;;20.70;99.90;;;;;;7284655;19;20209;-79
2023/06/18 02:25:05;;;;;;;12.60;7.37;;;20.70;99.90;;;;;;7285298;19;20211;-79
2023/06/18 02:27:30;;;;;;;10.90;7.27;;;20.70;99.90;;;;;;7285721;19;20261;-79
2023/06/18 02:29:59;;;;;;;10.90;6.30;;;20.60;99.90;;;;;;7284807;19;20194;-79
2023/06/18 02:32:24;;;;;;;11.70;7.00;;;20.60;99.90;;;;;;7284561;19;20195;-79
2023/06/18 02:34:50;;;;;;;9.70;6.63;;;20.60;99.90;;;;;;7307594;19;20684;-79
2023/06/18 02:37:16;;;;;;;12.53;7.47;;;20.70;99.90;;;;;;7286067;19;20257;-79
2023/06/18 02:39:42;;;;;;;9.70;6.70;;;20.70;99.90;;;;;;7284219;19;20266;-79
2023/06/18 02:42:09;;;;;;;13.00;6.60;;;20.70;99.90;;;;;;7285774;19;20184;-79
2023/06/18 02:44:35;;;;;;;14.93;7.03;;;20.80;99.90;;;;;;7286000;19;20193;-79
2023/06/18 02:47:02;;;;;;;13.83;6.90;;;20.80;99.90;;;;;;7285656;19;20248;-79
2023/06/18 02:49:27;;;;;;;10.83;6.67;;;20.80;99.90;;;;;;7284391;19;20707;-79
2023/06/18 02:51:54;;;;;;;11.57;6.73;;;20.80;99.90;;;;;;7284633;19;20196;-79
2023/06/18 02:54:20;;;;;;;9.90;6.73;;;20.80;99.90;;;;;;7305873;19;20532;-79
2023/06/18 02:56:46;;;;;;;10.03;6.50;;;20.70;99.90;;;;;;7285457;19;20203;-79
2023/06/18 02:59:11;;;;;;;14.07;6.33;;;20.70;99.90;;;;;;7285195;19;20640;-79
2023/06/18 03:01:37;;;;;;;11.23;6.40;;;20.70;99.90;;;;;;7284034;19;20204;-79
2023/06/18 03:04:04;;;;;;;10.60;6.40;;;20.70;99.90;;;;;;7284813;19;20196;-79
2023/06/18 03:06:32;;;;;;;13.47;6.27;;;20.60;99.90;;;;;;7282384;19;20189;-79
2023/06/18 03:08:58;;;;;;;9.90;6.37;;;20.60;99.90;;;;;;7283024;19;20192;-79
2023/06/18 03:11:26;;;;;;;10.17;6.17;;;20.50;99.90;;;;;;7284558;19;20188;-79
2023/06/18 03:13:52;;;;;;;10.30;6.77;;;20.60;99.90;;;;;;7286150;19;20196;-78
2023/06/18 03:16:19;;;;;;;9.40;6.57;;;20.60;99.90;;;;;;7306733;19;20189;-79
2023/06/18 03:18:45;;;;;;;10.40;6.40;;;20.60;99.90;;;;;;7284862;19;20180;-79
2023/06/18 03:21:11;;;;;;;11.40;6.40;;;20.60;99.90;;;;;;7283899;19;21709;-79
2023/06/18 03:23:37;;;;;;;9.90;6.40;;;20.60;99.90;;;;;;7284723;19;20196;-79
2023/06/18 03:26:06;;;;;;;10.27;5.90;;;20.60;99.90;;;;;;7284042;19;20185;-79
2023/06/18 03:28:33;;;;;;;11.03;6.63;;;20.60;99.90;;;;;;7282754;19;20193;-79
2023/06/18 03:31:00;;;;;;;9.93;6.23;;;20.70;99.90;;;;;;7283174;19;20217;-79
2023/06/18 03:33:31;;;;;;;14.00;6.90;;;20.70;99.90;;;;;;7283491;19;20193;-79
2023/06/18 03:36:01;;;;;;;10.97;6.47;;;20.70;99.90;;;;;;7282433;19;20197;-79
2023/06/18 03:38:29;;;;;;;9.60;6.43;;;20.70;99.90;;;;;;7283649;19;20290;-79
2023/06/18 03:40:59;;;;;;;10.57;6.00;;;20.80;99.90;;;;;;7282098;19;20185;-79
2023/06/18 03:43:26;;;;;;;12.10;6.10;;;20.70;99.90;;;;;;7282222;19;20698;-79
2023/06/18 03:45:52;;;;;;;9.17;5.80;;;20.80;99.90;;;;;;7295879;19;20192;-79
2023/06/18 03:48:18;;;;;;;8.23;5.47;;;20.80;99.90;;;;;;7300629;19;20308;-79
2023/06/18 03:50:45;;;;;;;13.27;5.77;;;20.80;99.90;;;;;;7282543;19;20189;-79
2023/06/18 03:53:11;;;;;;;11.83;6.13;;;20.90;99.90;;;;;;7282173;19;20649;-79
2023/06/18 03:55:38;;;;;;;11.20;6.13;;;20.90;99.90;;;;;;7282733;19;20201;-79
2023/06/18 03:58:04;;;;;;;12.43;6.30;;;21.00;99.90;;;;;;7281833;19;20238;-79
2023/06/18 04:00:32;;;;;;;12.10;6.20;;;21.00;99.90;;;;;;7280856;19;20241;-79
2023/06/18 04:02:58;;;;;;;11.30;6.10;;;21.10;99.90;;;;;;7281034;19;20185;-78
2023/06/18 04:05:24;;;;;;;9.57;5.97;;;21.20;99.90;;;;;;7281898;19;20191;-79
2023/06/18 04:07:50;;;;;;;10.10;5.73;;;21.30;99.90;;;;;;7303736;19;20193;-79
2023/06/18 04:10:17;;;;;;;11.40;5.50;;;21.40;99.90;;;;;;7282484;19;20180;-79
2023/06/18 04:12:42;;;;;;;9.40;5.70;;;21.50;99.90;;;;;;7282850;19;20203;-78
2023/06/18 04:15:09;;;;;;;9.13;5.90;;;21.60;99.90;;;;;;7281235;19;20195;-79
2023/06/18 04:17:40;;;;;;;9.90;5.70;;;21.70;99.90;;;;;;7281883;19;20192;-79
2023/06/18 04:20:08;;;;;;;11.23;5.63;;;21.70;99.90;;;;;;7281236;19;20625;-79
2023/06/18 04:22:34;;;;;;;9.50;5.70;;;21.80;99.90;;;;;;7288196;19;20199;-79
2023/06/18 04:25:00;;;;;;;8.83;5.53;;;21.90;99.90;;;;;;7288415;19;20181;-78
2023/06/18 04:27:26;;;;;;;8.50;4.93;;;22.10;99.90;;;;;;7287867;19;20184;-79
2023/06/18 04:29:52;;;;;;;10.90;5.47;;;22.20;99.90;;;;;;7303983;19;20188;-80
2023/06/18 04:32:18;;;;;;;11.50;5.90;;;22.30;99.90;;;;;;7304127;19;20655;-80
2023/06/18 04:34:43;;;;;;;11.10;6.10;;;22.40;99.90;;;;;;7286415;19;21020;-80
2023/06/18 04:37:09;;;;;;;11.40;5.90;;;22.50;99.90;;;;;;7287513;19;20177;-80
2023/06/18 04:39:38;;;;;;;8.83;5.37;;;22.50;99.90;;;;;;7288709;19;20208;-80
2023/06/18 04:42:05;;;;;;;10.37;6.13;;;22.50;99.90;;;;;;7287369;19;20188;-80
2023/06/18 04:44:31;;;;;;;10.20;6.43;;;22.40;99.90;;;;;;7289280;19;20177;-80
2023/06/18 04:46:56;;;;;;;12.07;6.57;;;22.40;99.90;;;;;;7289311;19;20185;-80
2023/06/18 04:49:22;;;;;;;9.47;5.97;;;22.40;99.90;;;;;;7299558;19;20207;-79
2023/06/18 04:51:48;;;;;;;9.90;6.20;;;22.40;99.90;;;;;;7305898;19;20181;-80
2023/06/18 04:54:16;;;;;;;11.67;6.77;;;22.30;99.90;;;;;;7286496;19;20177;-80
2023/06/18 04:56:42;;;;;;;13.90;6.50;;;22.30;99.90;;;;;;7288910;19;20536;-80
2023/06/18 04:59:08;;;;;;;10.35;6.57;;;22.30;99.90;;;;;;7287640;19;20192;-79
2023/06/18 05:01:34;;;;;;;13.00;6.37;;;22.40;99.90;;;;;;7287655;19;20224;-80
2023/06/18 05:03:59;;;;;;;11.40;6.13;;;22.40;99.90;;;;;;7288347;19;20197;-80
2023/06/18 05:06:25;;;;;;;10.50;6.70;;;22.40;99.90;;;;;;7285657;19;20205;-79
2023/06/18 05:08:51;;;;;;;10.13;6.30;;;22.30;99.90;;;;;;7310430;19;20212;-80
2023/06/18 05:11:17;;;;;;;9.87;6.07;;;22.40;99.90;;;;;;7287931;19;20211;-79
2023/06/18 05:13:44;;;;;;;9.63;6.43;;;22.30;99.90;;;;;;7287989;19;20835;-80
2023/06/18 05:16:09;;;;;;;10.10;6.60;;;22.30;99.90;;;;;;7286915;19;20185;-79
2023/06/18 05:18:39;;;;;;;9.33;6.30;;;22.10;99.90;;;;;;7286141;19;20185;-79
2023/06/18 05:21:07;;;;;;;9.40;6.10;;;22.10;99.90;;;;;;7283858;19;20197;-79
2023/06/18 05:23:33;;;;;;;12.87;6.87;;;22.00;99.90;;;;;;7288377;19;20566;-79
2023/06/18 05:26:00;;;;;;;10.53;6.50;;;22.00;99.90;;;;;;7287381;19;20217;-80
2023/06/18 05:28:26;;;;;;;10.03;6.57;;;21.90;99.90;;;;;;7285147;19;20197;-80
2023/06/18 05:30:52;;;;;;;10.23;6.77;;;21.90;99.90;;;;;;7309534;19;20185;-80
2023/06/18 05:33:17;;;;;;;10.60;6.90;;;21.80;99.90;;;;;;7288136;19;20197;-79
2023/06/18 05:35:48;;;;;;;10.90;6.53;;;21.80;99.90;;;;;;7286486;19;20206;-79
2023/06/18 05:38:14;;;;;;;13.53;6.93;;;22.00;99.90;;;;;;7288002;19;21408;-80
2023/06/18 05:40:40;;;;;;;11.80;6.93;;;22.00;99.90;;;;;;7286618;19;20200;-80
2023/06/18 05:43:07;;;;;;;12.37;6.60;;;21.90;99.90;;;;;;7287617;19;20197;-80
2023/06/18 05:45:41;;;;;;;11.03;6.97;;;21.90;99.90;;;;;;7287972;19;20889;-80
2023/06/18 05:48:09;;;;;;;11.33;6.80;;;22.00;99.90;;;;;;7286672;19;20209;-81
2023/06/18 05:50:47;;;;;;;8.87;6.13;;;21.90;99.90;;;;;;7287364;19;20220;-80
2023/06/18 05:53:13;;;;;;;10.37;6.27;;;21.90;99.90;;;;;;7285468;19;20589;-79
2023/06/18 05:55:40;;;;;;;10.30;6.67;;;22.00;99.90;;;;;;7284848;19;20196;-80
2023/06/18 05:58:07;;;;;;;10.90;6.47;;;22.00;99.90;;;;;;7285251;19;20191;-80
2023/06/18 06:00:33;;;;;;;11.13;6.60;;;22.00;99.90;;;;;;7285931;19;20197;-79
2023/06/18 06:02:59;;;;;;;9.17;5.83;;;21.90;99.90;;;;;;7285806;19;20188;-79
2023/06/18 06:05:26;;;;;;;8.90;6.27;;;21.80;99.90;;;;;;7285014;19;20188;-79
2023/06/18 06:07:52;;;;;;;8.40;5.73;;;21.90;99.90;;;;;;7302360;19;20545;-79
2023/06/18 06:10:19;;;;;;;10.13;5.97;;;21.70;99.90;;;;;;7298112;19;20181;-79
2023/06/18 06:12:45;;;;;;;11.20;6.27;;;21.80;99.90;;;;;;7284780;19;20185;-79
2023/06/18 06:15:11;;;;;;;10.53;6.57;;;21.90;99.90;;;;;;7283705;19;20674;-80
2023/06/18 06:17:37;;;;;;;9.97;6.20;;;22.00;99.90;;;;;;7285934;19;20261;-79
2023/06/18 06:20:05;;;;;;;9.37;6.20;;;21.90;99.90;;;;;;7284209;19;20185;-80
2023/06/18 06:22:31;;;;;;;9.97;6.47;;;21.70;99.90;;;;;;7283539;19;20224;-80
2023/06/18 06:24:58;;;;;;;13.13;6.53;;;21.50;99.90;;;;;;7284797;19;20204;-79
2023/06/18 06:27:24;;;;;;;9.70;6.60;;;21.10;99.90;;;;;;7287834;19;20222;-79
2023/06/18 06:29:49;;;;;;;11.03;6.70;;;21.00;99.90;;;;;;7308274;19;20671;-80
2023/06/18 06:32:15;;;;;;;10.53;5.93;;;21.00;99.90;;;;;;7284076;19;20185;-79
2023/06/18 06:34:41;;;;;;;10.50;6.73;;;21.00;99.90;;;;;;7282932;19;20193;-80
2023/06/18 06:37:07;;;;;;;9.97;7.13;;;21.10;99.90;;;;;;7283454;19;20189;-80
2023/06/18 06:39:34;;;;;;;11.50;7.50;;;21.20;99.90;;;;;;7283893;19;20209;-80
2023/06/18 06:42:01;;;;;;;11.67;6.90;;;21.40;99.90;;;;;;7284970;19;20216;-80
2023/06/18 06:44:29;;;;;;;11.57;6.97;;;21.50;99.90;;;;;;7283288;19;20185;-80
2023/06/18 06:47:13;;;;;;;11.63;7.10;;;21.60;99.90;;;;;;7284619;19;20217;-80
2023/06/18 06:49:58;;;;;;;10.50;7.13;;;21.60;99.90;;;;;;7182952;19;2004614;-80
2023/06/18 06:52:43;;;;;;;10.93;6.50;;;21.60;99.90;;;;;;7285554;19;20229;-80
2023/06/18 06:55:09;;;;;;;11.87;6.90;;;21.50;99.90;;;;;;7284492;19;20565;-80
2023/06/18 06:57:35;;;;;;;10.70;6.57;;;21.60;99.90;;;;;;7284834;19;20561;-80
2023/06/18 07:00:02;;;;;;;12.97;7.37;;;21.50;99.90;;;;;;7282939;19;20200;-80
2023/06/18 07:02:30;;;;;;;13.00;7.50;;;21.50;99.90;;;;;;7283698;19;20747;-80
2023/06/18 07:04:56;;;;;;;12.23;7.37;;;21.50;99.90;;;;;;7283237;19;20956;-80
2023/06/18 07:07:22;;;;;;;11.03;7.40;;;21.50;99.90;;;;;;7304735;19;20210;-80
2023/06/18 07:09:47;;;;;;;11.80;7.33;;;21.60;99.90;;;;;;7291674;19;20220;-81
2023/06/18 07:12:13;;;;;;;11.50;7.20;;;21.60;99.90;;;;;;7282529;19;20652;-79
2023/06/18 07:14:39;;;;;;;12.03;7.57;;;21.70;99.90;;;;;;7280849;19;20539;-79
2023/06/18 07:17:05;;;;;;;10.90;7.30;;;21.70;99.90;;;;;;7280764;19;21016;-79
2023/06/18 07:19:30;;;;;;;11.37;7.47;;;21.70;99.90;;;;;;7280960;19;20188;-79
2023/06/18 07:21:56;;;;;;;13.37;7.77;;;21.70;99.90;;;;;;7281594;19;20197;-79
2023/06/18 07:24:22;;;;;;;13.33;7.43;;;21.70;99.90;;;;;;7304371;19;20224;-79
2023/06/18 07:26:48;;;;;;;14.63;7.70;;;21.70;99.90;;;;;;7291712;19;20733;-79
2023/06/18 07:29:13;;;;;;;14.27;7.73;;;21.60;99.90;;;;;;7283209;19;21015;-79
2023/06/18 07:31:39;;;;;;;12.83;8.47;;;21.30;99.90;;;;;;7283475;19;20193;-79
2023/06/18 07:34:05;;;;;;;12.77;8.57;;;21.20;99.90;;;;;;7281936;19;20188;-79
2023/06/18 07:36:30;;;;;;;12.33;8.13;;;21.30;99.90;;;;;;7284283;19;20932;-81
2023/06/18 07:38:56;;;;;;;12.33;7.73;;;21.30;99.90;;;;;;7284104;19;20572;-78
2023/06/18 07:41:22;;;;;;;15.00;7.83;;;21.40;99.90;;;;;;7305266;19;20200;-78
2023/06/18 07:43:48;;;;;;;13.00;7.80;;;21.70;99.90;;;;;;7295053;19;20244;-79
2023/06/18 07:46:14;;;;;;;12.07;7.73;;;21.90;99.90;;;;;;7283186;19;20196;-79
2023/06/18 07:48:40;;;;;;;12.30;7.63;;;22.10;99.90;;;;;;7283432;19;20644;-78
2023/06/18 07:51:06;;;;;;;11.57;7.77;;;22.30;99.90;;;;;;7283077;19;20200;-78
2023/06/18 07:53:32;;;;;;;15.13;8.13;;;22.50;99.90;;;;;;7282969;19;20246;-78
2023/06/18 07:55:59;;;;;;;11.70;7.50;;;22.70;99.90;;;;;;7285305;19;20248;-78
2023/06/18 07:58:25;;;;;;;12.10;7.87;;;23.00;99.90;;;;;;7289713;19;20536;-78
2023/06/18 08:00:51;;;;;;;11.30;7.13;;;23.10;99.90;;;;;;7311160;19;20211;-79
2023/06/18 08:03:17;;;;;;;11.43;7.17;;;23.20;99.90;;;;;;7288641;19;20529;-78
2023/06/18 08:05:43;;;;;;;11.40;7.47;;;23.10;99.90;;;;;;7289500;19;20213;-78
2023/06/18 08:08:08;;;;;;;11.37;7.67;;;23.00;99.90;;;;;;7288753;19;20193;-79
2023/06/18 08:10:34;;;;;;;12.13;7.90;;;22.90;99.90;;;;;;7288761;19;20767;-79
2023/06/18 08:13:00;;;;;;;15.10;8.27;;;22.90;99.90;;;;;;7288804;19;20185;-78
2023/06/18 08:15:25;;;;;;;11.80;7.40;;;23.00;99.90;;;;;;7289044;19;20214;-78
2023/06/18 08:17:52;;;;;;;11.30;7.83;;;23.10;99.90;;;;;;7309661;19;20212;-79
2023/06/18 08:20:18;;;;;;;13.83;8.67;;;23.30;99.90;;;;;;7288852;19;20259;-80
2023/06/18 08:22:44;;;;;;;11.60;8.17;;;23.60;99.90;;;;;;7287994;19;20204;-78
2023/06/18 08:25:10;;;;;;;12.38;7.90;;;23.80;99.90;;;;;;7288593;19;20196;-80
2023/06/18 08:27:35;;;;;;;11.18;7.82;;;23.90;99.90;;;;;;7289313;19;20200;-79
2023/06/18 08:30:02;;;;;;;12.27;7.85;;;23.80;99.90;;;;;;7288408;19;20203;-78
2023/06/18 08:32:28;;;;;;;14.13;7.85;;;23.70;99.90;;;;;;7289354;19;20188;-78
2023/06/18 08:34:54;;;;;;;11.38;8.00;;;23.60;99.90;;;;;;7290165;19;20591;-79
2023/06/18 08:37:19;;;;;;;11.68;7.90;;;23.50;99.90;;;;;;7309534;19;20189;-79
2023/06/18 08:39:45;;;;;;;15.02;9.15;;;23.50;99.90;;;;;;7287714;19;20260;-79
2023/06/18 08:42:17;;;;;;;12.13;8.70;;;23.50;99.90;;;;;;7288074;19;20193;-79
2023/06/18 08:44:45;;;;;;;14.57;8.57;;;23.50;99.90;;;;;;7287592;19;20332;-79
2023/06/18 08:47:12;;;;;;;12.18;8.70;;;23.50;99.90;;;;;;7283976;19;20197;-79
2023/06/18 08:49:41;;;;;;;13.17;9.10;;;23.40;99.90;;;;;;7287113;19;20195;-78
2023/06/18 08:52:10;;;;;;;12.00;8.83;;;23.20;99.90;;;;;;7287945;19;20207;-80
2023/06/18 08:54:39;;;;;;;14.55;9.38;;;23.30;99.90;;;;;;7287924;19;20200;-78
2023/06/18 08:57:24;;;;;;;13.83;9.30;;;23.40;99.90;;;;;;7289240;19;20189;-79
2023/06/18 08:59:50;;;;;;;13.60;9.40;;;23.50;99.90;;;;;;7288479;19;20185;-79
2023/06/18 09:02:20;;;;;;;13.70;9.43;;;23.40;99.90;;;;;;7286373;19;20577;-78
2023/06/18 09:04:46;;;;;;;15.13;9.47;;;23.20;99.90;;;;;;7284824;19;20193;-79
2023/06/18 09:07:12;;;;;;;13.20;9.67;;;23.10;99.90;;;;;;7285215;19;20203;-79
2023/06/18 09:09:38;;;;;;;13.43;9.20;;;23.00;99.90;;;;;;7286464;19;20252;-77
2023/06/18 09:12:04;;;;;;;15.40;9.63;;;22.90;99.90;;;;;;7287540;19;20189;-79
2023/06/18 09:14:30;;;;;;;17.37;9.17;;;22.60;99.90;;;;;;7287157;19;20266;-79
2023/06/18 09:16:57;;;;;;;12.97;9.60;;;22.60;99.90;;;;;;7287281;19;20176;-79
2023/06/18 09:19:24;;;;;;;12.80;9.50;;;22.50;99.90;;;;;;7302470;19;20192;-79
2023/06/18 09:21:52;;;;;;;12.93;10.03;;;22.30;99.90;;;;;;7310046;19;20183;-79
2023/06/18 09:24:20;;;;;;;15.00;10.17;;;22.10;99.90;;;;;;7287980;19;20722;-80
2023/06/18 09:26:59;;;;;;;15.93;10.17;;;22.20;99.90;;;;;;7285606;19;20181;-80
2023/06/18 09:29:30;;;;;;;13.73;9.80;;;22.30;99.90;;;;;;7264114;19;20188;-79
2023/06/18 09:31:56;;;;;;;16.13;10.07;;;22.50;99.90;;;;;;7287252;19;20188;-79
2023/06/18 09:34:22;;;;;;;16.47;9.70;;;22.60;99.90;;;;;;7308683;19;20695;-79
2023/06/18 09:36:50;;;;;;;15.37;9.37;;;23.00;99.90;;;;;;7287187;19;20191;-79
2023/06/18 09:39:25;;;;;;;14.77;9.20;;;23.30;99.90;;;;;;7285238;19;20264;-79
2023/06/18 09:41:53;;;;;;;15.37;10.10;;;23.60;99.90;;;;;;7287199;19;20184;-79
2023/06/18 09:44:21;;;;;;;13.80;9.07;;;23.90;99.90;;;;;;7286523;19;20228;-80
2023/06/18 09:46:49;;;;;;;13.45;9.85;;;23.90;99.90;;;;;;7287041;19;20192;-79
2023/06/18 09:49:22;;;;;;;13.35;9.00;;;24.00;99.90;;;;;;7286163;19;20191;-80
2023/06/18 09:51:50;;;;;;;13.15;8.35;;;24.10;99.90;;;;;;7287884;19;20184;-80
2023/06/18 09:54:16;;;;;;;13.63;9.25;;;24.30;99.90;;;;;;7286526;19;21047;-79
2023/06/18 09:57:13;;;;;;;11.98;9.15;;;24.70;99.90;;;;;;7285880;19;20896;-79
2023/06/18 09:59:39;;;;;;;13.32;8.85;;;25.20;99.90;;;;;;7182337;19;2005045;-81
2023/06/18 10:02:06;;;;;;;15.25;9.02;;;25.60;99.90;;;;;;7284534;19;20211;-80
2023/06/18 10:04:33;;;;;;;14.45;8.75;;;25.60;99.90;;;;;;7284902;19;20188;-79
2023/06/18 10:07:03;;;;;;;13.93;8.90;;;25.50;99.90;;;;;;7284356;19;20184;-80
2023/06/18 10:09:32;;;;;;;12.68;8.85;;;25.40;99.90;;;;;;7284197;19;20208;-79
2023/06/18 10:12:00;;;;;;;12.10;8.35;;;25.60;99.90;;;;;;7285534;19;20623;-79
2023/06/18 10:14:28;;;;;;;12.00;8.43;;;25.40;99.90;;;;;;7286246;19;20299;-79
2023/06/18 10:17:05;;;;;;;13.40;9.25;;;25.60;99.90;;;;;;7292052;19;20196;-79
2023/06/18 10:19:57;;;;;;;14.13;8.60;;;25.60;99.90;;;;;;7283368;19;20260;-80
2023/06/18 10:22:24;;;;;;;15.48;8.88;;;25.50;99.90;;;;;;7276812;19;20910;-79
2023/06/18 10:25:02;;;;;;;11.32;8.45;;;25.60;99.90;;;;;;7305443;19;20189;-80
2023/06/18 10:27:29;;;;;;;14.30;8.20;;;25.50;99.90;;;;;;7183341;19;2005033;-79
2023/06/18 10:29:59;;;;;;;11.82;8.55;;;25.60;99.90;;;;;;7285086;19;20276;-78
2023/06/18 10:32:27;;;;;;;13.38;9.32;;;25.70;99.90;;;;;;7285752;19;20185;-78
2023/06/18 10:34:55;;;;;;;12.98;8.95;;;25.70;99.90;;;;;;7302669;19;20189;-79
2023/06/18 10:37:21;;;;;;;12.18;9.13;;;25.70;99.90;;;;;;7306735;19;20189;-79
2023/06/18 10:39:47;;;;;;;12.43;9.00;;;25.80;99.90;;;;;;7291107;19;20216;-80
2023/06/18 10:42:16;;;;;;;12.85;9.40;;;25.70;99.90;;;;;;7282849;19;20232;-80
2023/06/18 10:44:48;;;;;;;12.02;9.15;;;25.80;99.90;;;;;;7281445;19;21945;-79
2023/06/18 10:47:22;;;;;;;16.63;9.18;;;25.80;99.90;;;;;;7285321;19;20616;-83
2023/06/18 10:50:12;;;;;;;12.73;8.98;;;25.60;99.90;;;;;;7284199;19;20217;-82
2023/06/18 10:52:43;;;;;;;13.55;9.38;;;25.50;99.90;;;;;;7182705;19;2004967;-82
2023/06/18 10:55:24;;;;;;;13.20;9.73;;;25.40;99.90;;;;;;7283569;19;20203;-82
2023/06/18 10:58:10;;;;;;;13.65;10.07;;;25.30;99.90;;;;;;7284615;19;20189;-82
2023/06/18 11:00:39;;;;;;;15.13;10.55;;;25.00;99.90;;;;;;7182453;19;2004564;-81
2023/06/18 11:03:12;;;;;;;15.55;11.55;;;24.90;99.90;;;;;;7284305;19;20256;-82
2023/06/18 11:05:49;;;;;;;14.55;11.70;;;24.60;99.90;;;;;;7285124;19;20192;-81
2023/06/18 11:08:32;;;;;;;15.20;11.32;;;24.60;99.90;;;;;;7283223;19;20192;-82
2023/06/18 11:11:03;;;;;;;15.68;11.40;;;24.70;99.90;;;;;;7182726;19;2005014;-81
2023/06/18 11:13:32;;;;;;;17.55;11.40;;;24.80;99.90;;;;;;7283078;19;20188;-81
2023/06/18 11:16:09;;;;;;;16.02;11.43;;;24.60;99.90;;;;;;7285007;19;20193;-81
2023/06/18 11:18:35;;;;;;;16.08;10.65;;;24.50;99.90;;;;;;7283276;19;20214;-82
2023/06/18 11:21:05;;;;;;;14.25;11.35;;;24.40;99.90;;;;;;7282716;19;20220;-83
2023/06/18 11:23:32;;;;;;;17.48;11.20;;;24.50;99.90;;;;;;7280834;19;21188;-81
2023/06/18 11:25:58;;;;;;;14.73;10.98;;;24.60;99.90;;;;;;7282507;19;20268;-82
2023/06/18 11:28:25;;;;;;;14.15;10.65;;;24.80;99.90;;;;;;7285609;19;20184;-82
2023/06/18 11:30:55;;;;;;;14.45;10.93;;;25.00;99.90;;;;;;7303725;19;20205;-82
2023/06/18 11:33:28;;;;;;;15.82;11.50;;;25.00;99.90;;;;;;7284049;19;20203;-84
2023/06/18 11:36:09;;;;;;;13.60;10.50;;;25.00;99.90;;;;;;7267163;19;20543;-82
2023/06/18 11:38:35;;;;;;;15.45;10.43;;;25.10;99.90;;;;;;7285155;19;20204;-82
2023/06/18 11:41:01;;;;;;;14.43;10.32;;;24.90;99.90;;;;;;7279899;19;20260;-82
2023/06/18 11:43:46;;;;;;;14.30;10.57;;;24.80;99.90;;;;;;7282449;19;20198;-81
2023/06/18 11:46:33;;;;;;;15.90;9.98;;;25.80;99.90;;;;;;7282750;19;20181;-82
2023/06/18 11:49:00;;;;;;;14.65;9.38;;;27.10;99.90;;;;;;7178887;19;2004405;-82
2023/06/18 11:51:26;;;;;;;17.67;10.60;;;28.20;99.90;;;;;;7284064;19;20181;-82
2023/06/18 11:53:56;;;;;;;15.13;9.90;;;28.20;99.90;;;;;;7304835;19;20609;-82
2023/06/18 11:56:26;;;;;;;13.02;9.52;;;28.40;99.90;;;;;;7286296;19;21086;-82
2023/06/18 11:58:53;;;;;;;13.10;8.88;;;28.80;99.90;;;;;;7283617;19;20177;-82
2023/06/18 12:01:19;;;;;;;13.18;8.98;;;29.70;99.90;;;;;;7285671;19;20188;-83
2023/06/18 12:03:46;;;;;;;11.63;8.65;;;30.00;99.90;;;;;;7287457;19;21893;-82
2023/06/18 12:06:13;;;;;;;11.57;8.85;;;29.60;99.90;;;;;;7283047;19;20667;-82
2023/06/18 12:08:45;;;;;;;12.90;9.10;;;29.10;99.90;;;;;;7283227;19;20648;-82
2023/06/18 12:11:23;;;;;;;11.95;8.80;;;29.10;99.90;;;;;;7283648;19;20199;-83
2023/06/18 12:13:53;;;;;;;14.90;9.50;;;29.10;99.90;;;;;;7283007;19;20842;-81
2023/06/18 12:16:26;;;;;;;13.07;9.82;;;29.00;99.90;;;;;;7282779;19;20657;-84
2023/06/18 12:18:58;;;;;;;14.13;9.18;;;28.60;99.90;;;;;;7277943;19;20188;-83
2023/06/18 12:21:24;;;;;;;13.25;8.93;;;28.50;99.90;;;;;;7268988;19;20292;-82
2023/06/18 12:23:51;;;;;;;11.35;8.10;;;28.50;99.90;;;;;;7307951;19;20200;-83
2023/06/18 12:26:17;;;;;;;10.65;7.22;;;28.20;99.90;;;;;;7284125;19;20260;-82
2023/06/18 12:28:44;;;;;;;8.45;5.45;;;28.00;99.90;;;;;;7282245;19;21011;-83
2023/06/18 12:31:10;;;;;;;9.52;5.78;;;27.80;99.90;;;;;;7281701;19;20196;-81
2023/06/18 12:33:43;;;;;;;9.10;5.85;;;27.50;99.90;;;;;;7278729;19;20232;-80
2023/06/18 12:36:09;;;;;;;8.93;5.78;;;27.00;99.90;;;;;;7282237;19;20544;-81
2023/06/18 12:38:43;;;;;;;8.82;6.80;;;26.80;99.90;;;;;;7281149;19;20245;-81
2023/06/18 12:41:10;;;;;;;11.90;7.63;;;26.60;99.90;;;;;;7279907;19;20193;-80